createdAt,value
2022-07-30T00:02:32.797Z,7.20
2022-07-30T00:08:34.549Z,6.47
2022-07-30T00:14:36.547Z,6.82
2022-07-30T00:20:40.261Z,7.07
2022-07-30T00:26:44.502Z,7.88
2022-07-30T00:32:46.238Z,7.55
2022-07-30T00:38:48.055Z,8.68
2022-07-30T00:44:50.007Z,9.38
2022-07-30T00:50:51.807Z,9.13
2022-07-30T00:56:54.069Z,10.20
2022-07-30T01:02:56.046Z,10.52
2022-07-30T01:08:57.929Z,10.48
2022-07-30T01:15:01.421Z,9.57
2022-07-30T01:21:09.439Z,9.77
2022-07-30T01:27:15.710Z,9.48
2022-07-30T01:33:21.793Z,9.00
2022-07-30T01:39:25.540Z,9.00
2022-07-30T01:45:31.028Z,9.93
2022-07-30T01:51:39.167Z,11.18
2022-07-30T01:57:41.572Z,12.55
2022-07-30T02:03:43.421Z,12.27
2022-07-30T02:10:04.921Z,11.38
2022-07-30T02:16:13.558Z,10.45
2022-07-30T02:22:18.492Z,11.23
2022-07-30T02:28:23.180Z,10.73
2022-07-30T02:40:28.460Z,11.50
2022-07-30T02:46:32.379Z,13.10
2022-07-30T02:52:35.611Z,11.18
2022-07-30T02:58:39.294Z,11.00
2022-07-30T03:04:42.878Z,11.38
2022-07-30T03:10:45.835Z,11.60
2022-07-30T03:16:54.163Z,12.30
2022-07-30T03:22:58.395Z,11.10
2022-07-30T03:29:01.290Z,9.82
2022-07-30T03:35:06.359Z,9.77
2022-07-30T03:41:11.527Z,9.38
2022-07-30T03:47:15.490Z,10.80
2022-07-30T03:53:17.540Z,9.68
2022-07-30T03:59:19.372Z,8.98
2022-07-30T04:05:21.975Z,9.93
2022-07-30T04:11:41.437Z,10.00
2022-07-30T04:17:49.100Z,9.43
2022-07-30T04:24:01.922Z,10.23
2022-07-30T04:30:07.605Z,8.50
2022-07-30T04:36:11.165Z,8.90
2022-07-30T04:42:14.600Z,11.43
2022-07-30T04:48:16.375Z,11.00
2022-07-30T04:54:20.460Z,10.63
2022-07-30T05:06:25.109Z,10.52
2022-07-30T05:12:40.147Z,12.93
2022-07-30T05:18:42.228Z,12.73
2022-07-30T05:24:43.932Z,12.88
2022-07-30T05:30:45.664Z,11.45
2022-07-30T05:36:48.600Z,12.05
2022-07-30T05:42:50.346Z,10.85
2022-07-30T05:48:52.458Z,9.55
2022-07-30T05:54:54.250Z,9.65
2022-07-30T06:00:55.984Z,9.93
2022-07-30T06:06:57.879Z,10.18
2022-07-30T06:12:59.836Z,10.13
2022-07-30T06:19:01.611Z,9.63
2022-07-30T06:25:03.440Z,10.85
2022-07-30T06:31:05.785Z,10.93
2022-07-30T06:37:07.561Z,10.98
2022-07-30T06:43:09.269Z,10.27
2022-07-30T06:49:11.023Z,11.77
2022-07-30T06:55:14.082Z,14.13
2022-07-30T07:01:15.877Z,14.90
2022-07-30T07:07:31.731Z,12.68
2022-07-30T07:13:39.528Z,11.10
2022-07-30T07:20:00.315Z,8.00
2022-07-30T07:26:03.614Z,8.63
2022-07-30T07:32:08.049Z,7.60
2022-07-30T07:38:10.059Z,6.82
2022-07-30T07:44:11.772Z,7.13
2022-07-30T07:50:16.043Z,6.97
2022-07-30T07:56:17.881Z,6.30
2022-07-30T08:02:19.934Z,6.68
2022-07-30T08:08:21.723Z,5.97
2022-07-30T08:14:23.493Z,7.60
2022-07-30T08:20:25.298Z,7.30
2022-07-30T08:26:27.120Z,8.45
2022-07-30T08:32:28.910Z,7.28
2022-07-30T08:38:30.758Z,7.13
2022-07-30T08:44:33.725Z,7.80
2022-07-30T08:50:36.394Z,8.00
2022-07-30T08:56:38.408Z,9.10
2022-07-30T09:02:40.161Z,8.55
2022-07-30T09:08:42.471Z,8.63
2022-07-30T09:15:03.974Z,9.23
2022-07-30T09:21:37.927Z,9.02
2022-07-30T09:27:49.454Z,8.88
2022-07-30T09:33:51.616Z,6.85
2022-07-30T09:39:58.891Z,7.15
2022-07-30T09:46:01.701Z,6.90
2022-07-30T09:52:03.581Z,6.30
2022-07-30T09:58:08.419Z,6.55
2022-07-30T10:04:10.173Z,6.75
2022-07-30T10:10:13.142Z,5.07
2022-07-30T10:16:19.355Z,4.07
2022-07-30T10:22:21.167Z,3.70
2022-07-30T10:28:24.880Z,3.63
2022-07-30T10:40:46.204Z,3.08
2022-07-30T10:47:06.981Z,3.15
2022-07-30T10:53:10.063Z,2.92
2022-07-30T10:59:13.065Z,2.97
2022-07-30T11:05:44.018Z,3.05
2022-07-30T11:12:05.429Z,3.35
2022-07-30T11:18:12.524Z,3.97
2022-07-30T11:24:46.526Z,3.70
2022-07-30T11:30:49.584Z,3.22
2022-07-30T11:37:19.246Z,3.08
2022-07-30T11:43:35.522Z,2.80
2022-07-30T11:49:38.299Z,3.00
2022-07-30T11:55:42.629Z,3.20
2022-07-30T12:01:48.932Z,3.10
2022-07-30T12:07:50.814Z,3.75
2022-07-30T12:13:59.506Z,3.33
2022-07-30T12:20:01.531Z,3.63
2022-07-30T12:26:04.232Z,2.72
2022-07-30T12:32:06.129Z,3.08
2022-07-30T12:38:07.928Z,2.85
2022-07-30T12:44:10.125Z,3.28
2022-07-30T12:50:21.363Z,2.75
2022-07-30T12:56:27.716Z,2.53
2022-07-30T13:02:36.281Z,2.40
2022-07-30T13:08:53.880Z,2.65
2022-07-30T13:14:55.580Z,3.00
2022-07-30T13:20:58.355Z,2.72
2022-07-30T13:27:00.053Z,2.80
2022-07-30T13:33:01.775Z,2.85
2022-07-30T13:39:03.808Z,2.63
2022-07-30T13:45:06.200Z,2.53
2022-07-30T13:51:08.118Z,2.40
2022-07-30T13:57:09.931Z,2.42
2022-07-30T14:03:12.711Z,2.35
2022-07-30T14:09:15.051Z,2.35
2022-07-30T14:15:18.008Z,2.60
2022-07-30T14:21:19.854Z,2.50
2022-07-30T14:27:21.640Z,2.50
2022-07-30T14:33:24.325Z,2.30
2022-07-30T14:39:26.133Z,2.50
2022-07-30T14:45:28.721Z,2.20
2022-07-30T14:51:34.522Z,2.45
2022-07-30T14:57:36.786Z,1.88
2022-07-30T15:03:38.771Z,2.30
2022-07-30T15:09:40.507Z,2.42
2022-07-30T15:15:42.288Z,2.35
2022-07-30T15:21:47.691Z,2.00
2022-07-30T15:27:49.585Z,2.40
2022-07-30T15:33:51.330Z,2.53
2022-07-30T15:39:55.389Z,1.92
2022-07-30T15:45:57.399Z,2.30
2022-07-30T15:51:59.924Z,2.40
2022-07-30T15:58:01.854Z,2.53
2022-07-30T16:04:03.999Z,2.45
2022-07-30T16:10:06.608Z,2.40
2022-07-30T16:16:08.625Z,2.13
2022-07-30T16:22:10.578Z,2.00
2022-07-30T16:28:12.598Z,2.33
2022-07-30T16:34:14.639Z,1.90
2022-07-30T16:40:16.805Z,2.20
2022-07-30T16:46:18.967Z,2.72
2022-07-30T16:52:21.196Z,1.97
2022-07-30T16:58:30.934Z,2.17
2022-07-30T17:04:34.740Z,1.88
2022-07-30T17:10:36.471Z,1.67
2022-07-30T17:16:38.235Z,2.00
2022-07-30T17:22:43.103Z,2.03
2022-07-30T17:28:44.946Z,1.83
2022-07-30T17:34:48.671Z,1.50
2022-07-30T17:40:50.502Z,1.73
2022-07-30T17:46:52.355Z,2.03
2022-07-30T17:52:54.110Z,1.98
2022-07-30T17:58:55.780Z,1.50
2022-07-30T18:04:57.515Z,1.60
2022-07-30T18:10:59.481Z,1.92
2022-07-30T18:17:02.613Z,1.75
2022-07-30T18:23:09.409Z,1.80
2022-07-30T18:29:14.001Z,1.50
2022-07-30T18:35:16.160Z,1.92
2022-07-30T18:41:18.984Z,1.48
2022-07-30T18:47:20.668Z,1.55
2022-07-30T18:53:22.474Z,1.80
2022-07-30T18:59:24.166Z,1.67
2022-07-30T19:05:26.314Z,1.58
2022-07-30T19:11:28.153Z,1.95
2022-07-30T19:17:45.402Z,1.33
2022-07-30T19:23:48.393Z,1.67
2022-07-30T19:29:51.109Z,1.77
2022-07-30T19:35:52.790Z,1.50
2022-07-30T19:41:54.666Z,1.35
2022-07-30T19:47:56.545Z,1.58
2022-07-30T19:53:58.632Z,1.42
2022-07-30T20:00:04.067Z,1.52
2022-07-30T20:06:07.697Z,1.30
2022-07-30T20:12:09.523Z,1.30
2022-07-30T20:18:11.557Z,1.38
2022-07-30T20:24:14.706Z,1.40
2022-07-30T20:30:17.311Z,1.80
2022-07-30T20:36:27.415Z,1.48
2022-07-30T20:42:30.103Z,1.50
2022-07-30T20:48:34.961Z,1.70
2022-07-30T20:54:38.059Z,1.75
2022-07-30T21:00:49.565Z,1.67
2022-07-30T21:06:52.488Z,1.70
2022-07-30T21:12:58.756Z,1.40
2022-07-30T21:19:10.477Z,1.52
2022-07-30T21:25:12.222Z,1.92
2022-07-30T21:31:14.346Z,1.70
2022-07-30T21:37:16.195Z,1.83
2022-07-30T21:43:17.904Z,2.30
2022-07-30T21:49:31.750Z,2.78
2022-07-30T21:55:53.072Z,2.70
2022-07-30T22:01:55.857Z,2.40
2022-07-30T22:07:57.619Z,2.80
2022-07-30T22:13:59.342Z,2.95
2022-07-30T22:20:03.344Z,3.30
2022-07-30T22:26:05.196Z,3.53
2022-07-30T22:32:08.592Z,4.20
2022-07-30T22:38:12.081Z,3.58
2022-07-30T22:44:13.920Z,3.30
2022-07-30T22:50:15.678Z,3.63
2022-07-30T22:56:23.925Z,3.80
2022-07-30T23:02:25.993Z,3.50
2022-07-30T23:14:32.783Z,3.95
2022-07-30T23:20:34.505Z,3.95
2022-07-30T23:26:36.466Z,4.50
2022-07-30T23:32:42.548Z,3.80
2022-07-30T23:38:46.264Z,4.00
2022-07-30T23:50:49.911Z,3.97
2022-07-30T23:56:55.989Z,3.60
